sensor_id;sensor_type;location;lat;lon;timestamp;P1;durP1;ratioP1;P2;durP2;ratioP2
15516;SDS011;7860;52.030;5.572;2023-05-10T00:03:18;46.16;;;25.05;;
15516;SDS011;7860;52.030;5.572;2023-05-10T00:03:18;49.89;;;25.57;;
15516;SDS011;7860;52.030;5.572;2023-05-10T00:03:18;48.35;;;25.86;;
15516;SDS011;7860;52.030;5.572;2023-05-10T00:03:27;50.97;;;25.42;;
15516;SDS011;7860;52.030;5.572;2023-05-10T00:04:28;50.25;;;25.94;;
15516;SDS011;7860;52.030;5.572;2023-05-10T00:05:28;50.68;;;25.64;;
15516;SDS011;7860;52.030;5.572;2023-05-10T00:06:28;40.11;;;22.91;;
15516;SDS011;7860;52.030;5.572;2023-05-10T00:07:28;48.34;;;25.55;;
15516;SDS011;7860;52.030;5.572;2023-05-10T00:08:28;48.60;;;25.56;;
15516;SDS011;7860;52.030;5.572;2023-05-10T00:09:28;55.00;;;26.01;;
15516;SDS011;7860;52.030;5.572;2023-05-10T00:10:28;47.83;;;25.18;;
15516;SDS011;7860;52.030;5.572;2023-05-10T00:11:29;45.71;;;25.31;;
15516;SDS011;7860;52.030;5.572;2023-05-10T00:12:29;49.11;;;25.77;;
15516;SDS011;7860;52.030;5.572;2023-05-10T00:13:29;49.15;;;25.39;;
15516;SDS011;7860;52.030;5.572;2023-05-10T00:14:29;48.09;;;25.96;;
15516;SDS011;7860;52.030;5.572;2023-05-10T00:15:29;52.34;;;27.09;;
15516;SDS011;7860;52.030;5.572;2023-05-10T00:16:29;43.68;;;23.87;;
15516;SDS011;7860;52.030;5.572;2023-05-10T00:17:29;50.62;;;26.48;;
15516;SDS011;7860;52.030;5.572;2023-05-10T00:18:29;48.39;;;26.32;;
15516;SDS011;7860;52.030;5.572;2023-05-10T00:19:29;46.64;;;25.43;;
15516;SDS011;7860;52.030;5.572;2023-05-10T00:20:30;52.98;;;26.61;;
15516;SDS011;7860;52.030;5.572;2023-05-10T00:21:30;55.29;;;26.96;;
15516;SDS011;7860;52.030;5.572;2023-05-10T00:22:30;51.31;;;26.86;;
15516;SDS011;7860;52.030;5.572;2023-05-10T00:23:30;51.62;;;26.62;;
15516;SDS011;7860;52.030;5.572;2023-05-10T00:24:31;54.22;;;27.14;;
15516;SDS011;7860;52.030;5.572;2023-05-10T00:25:31;50.87;;;26.05;;
15516;SDS011;7860;52.030;5.572;2023-05-10T00:26:31;56.92;;;26.93;;
15516;SDS011;7860;52.030;5.572;2023-05-10T00:27:31;58.08;;;27.44;;
15516;SDS011;7860;52.030;5.572;2023-05-10T00:28:31;50.87;;;26.29;;
15516;SDS011;7860;52.030;5.572;2023-05-10T00:29:31;55.74;;;27.79;;
15516;SDS011;7860;52.030;5.572;2023-05-10T00:30:31;55.88;;;28.07;;
15516;SDS011;7860;52.030;5.572;2023-05-10T00:31:31;58.58;;;28.35;;
15516;SDS011;7860;52.030;5.572;2023-05-10T00:32:31;60.59;;;28.58;;
15516;SDS011;7860;52.030;5.572;2023-05-10T00:33:32;54.97;;;27.70;;
15516;SDS011;7860;52.030;5.572;2023-05-10T00:34:32;53.30;;;28.27;;
15516;SDS011;7860;52.030;5.572;2023-05-10T00:35:32;59.28;;;29.70;;
15516;SDS011;7860;52.030;5.572;2023-05-10T00:36:32;55.76;;;28.64;;
15516;SDS011;7860;52.030;5.572;2023-05-10T00:37:32;60.55;;;29.18;;
15516;SDS011;7860;52.030;5.572;2023-05-10T00:38:32;57.27;;;28.39;;
15516;SDS011;7860;52.030;5.572;2023-05-10T00:39:32;60.15;;;28.40;;
15516;SDS011;7860;52.030;5.572;2023-05-10T00:40:32;61.10;;;29.18;;
15516;SDS011;7860;52.030;5.572;2023-05-10T00:41:32;62.96;;;28.70;;
15516;SDS011;7860;52.030;5.572;2023-05-10T00:42:32;61.58;;;29.49;;
15516;SDS011;7860;52.030;5.572;2023-05-10T00:43:32;58.32;;;28.66;;
15516;SDS011;7860;52.030;5.572;2023-05-10T00:44:32;56.51;;;27.95;;
15516;SDS011;7860;52.030;5.572;2023-05-10T00:45:32;52.51;;;26.33;;
15516;SDS011;7860;52.030;5.572;2023-05-10T00:46:32;58.43;;;29.49;;
15516;SDS011;7860;52.030;5.572;2023-05-10T00:47:33;49.51;;;25.61;;
15516;SDS011;7860;52.030;5.572;2023-05-10T00:48:33;57.49;;;27.97;;
15516;SDS011;7860;52.030;5.572;2023-05-10T00:49:34;59.69;;;28.66;;
15516;SDS011;7860;52.030;5.572;2023-05-10T00:50:33;59.89;;;29.01;;
15516;SDS011;7860;52.030;5.572;2023-05-10T00:51:33;55.85;;;28.78;;
15516;SDS011;7860;52.030;5.572;2023-05-10T00:52:33;55.48;;;28.53;;
15516;SDS011;7860;52.030;5.572;2023-05-10T00:53:34;58.75;;;28.82;;
15516;SDS011;7860;52.030;5.572;2023-05-10T00:54:34;58.72;;;28.31;;
15516;SDS011;7860;52.030;5.572;2023-05-10T00:55:35;56.61;;;28.30;;
15516;SDS011;7860;52.030;5.572;2023-05-10T00:56:35;58.80;;;28.33;;
15516;SDS011;7860;52.030;5.572;2023-05-10T00:57:35;60.55;;;28.72;;
15516;SDS011;7860;52.030;5.572;2023-05-10T00:58:35;61.47;;;29.61;;
15516;SDS011;7860;52.030;5.572;2023-05-10T00:59:36;58.88;;;28.72;;
15516;SDS011;7860;52.030;5.572;2023-05-10T01:00:36;60.02;;;29.17;;
15516;SDS011;7860;52.030;5.572;2023-05-10T01:01:36;59.34;;;27.90;;
15516;SDS011;7860;52.030;5.572;2023-05-10T01:02:36;60.24;;;28.59;;
15516;SDS011;7860;52.030;5.572;2023-05-10T01:03:36;58.00;;;28.86;;
15516;SDS011;7860;52.030;5.572;2023-05-10T01:04:36;60.10;;;28.45;;
15516;SDS011;7860;52.030;5.572;2023-05-10T01:05:36;55.86;;;26.29;;
15516;SDS011;7860;52.030;5.572;2023-05-10T01:06:36;57.08;;;28.35;;
15516;SDS011;7860;52.030;5.572;2023-05-10T01:07:36;61.03;;;28.68;;
15516;SDS011;7860;52.030;5.572;2023-05-10T01:08:36;61.96;;;28.56;;
15516;SDS011;7860;52.030;5.572;2023-05-10T01:09:36;59.36;;;27.24;;
15516;SDS011;7860;52.030;5.572;2023-05-10T01:10:36;59.84;;;27.55;;
15516;SDS011;7860;52.030;5.572;2023-05-10T01:11:37;55.85;;;27.63;;
15516;SDS011;7860;52.030;5.572;2023-05-10T01:12:38;54.40;;;27.07;;
15516;SDS011;7860;52.030;5.572;2023-05-10T01:13:38;54.11;;;27.19;;
15516;SDS011;7860;52.030;5.572;2023-05-10T01:14:37;55.08;;;27.02;;
15516;SDS011;7860;52.030;5.572;2023-05-10T01:15:37;58.34;;;27.39;;
15516;SDS011;7860;52.030;5.572;2023-05-10T01:16:38;54.14;;;27.12;;
15516;SDS011;7860;52.030;5.572;2023-05-10T01:17:38;54.41;;;26.81;;
15516;SDS011;7860;52.030;5.572;2023-05-10T01:18:38;57.44;;;27.73;;
15516;SDS011;7860;52.030;5.572;2023-05-10T01:19:37;55.07;;;26.45;;
15516;SDS011;7860;52.030;5.572;2023-05-10T01:20:40;52.94;;;27.05;;
15516;SDS011;7860;52.030;5.572;2023-05-10T01:21:41;54.99;;;26.32;;
15516;SDS011;7860;52.030;5.572;2023-05-10T01:22:43;51.89;;;26.47;;
15516;SDS011;7860;52.030;5.572;2023-05-10T01:23:45;53.87;;;26.48;;
15516;SDS011;7860;52.030;5.572;2023-05-10T01:24:45;51.71;;;27.08;;
15516;SDS011;7860;52.030;5.572;2023-05-10T01:25:48;52.23;;;25.89;;
15516;SDS011;7860;52.030;5.572;2023-05-10T01:26:47;54.02;;;26.68;;
15516;SDS011;7860;52.030;5.572;2023-05-10T01:27:45;51.01;;;25.44;;
15516;SDS011;7860;52.030;5.572;2023-05-10T01:28:50;49.42;;;26.06;;
15516;SDS011;7860;52.030;5.572;2023-05-10T01:29:47;51.93;;;25.71;;
15516;SDS011;7860;52.030;5.572;2023-05-10T01:31:59;53.39;;;26.39;;
15516;SDS011;7860;52.030;5.572;2023-05-10T01:32:43;54.06;;;26.52;;
15516;SDS011;7860;52.030;5.572;2023-05-10T01:33:43;50.27;;;25.33;;
15516;SDS011;7860;52.030;5.572;2023-05-10T01:34:42;54.15;;;27.03;;
15516;SDS011;7860;52.030;5.572;2023-05-10T01:35:43;56.05;;;26.90;;
15516;SDS011;7860;52.030;5.572;2023-05-10T01:36:43;52.16;;;25.42;;
15516;SDS011;7860;52.030;5.572;2023-05-10T01:37:57;52.80;;;25.14;;
15516;SDS011;7860;52.030;5.572;2023-05-10T01:38:43;52.03;;;26.23;;
15516;SDS011;7860;52.030;5.572;2023-05-10T01:39:44;54.27;;;26.36;;
15516;SDS011;7860;52.030;5.572;2023-05-10T01:40:45;54.52;;;26.33;;
15516;SDS011;7860;52.030;5.572;2023-05-10T01:41:44;54.19;;;25.99;;
15516;SDS011;7860;52.030;5.572;2023-05-10T01:42:46;55.15;;;26.33;;
15516;SDS011;7860;52.030;5.572;2023-05-10T01:43:46;55.33;;;25.48;;
15516;SDS011;7860;52.030;5.572;2023-05-10T01:44:46;54.71;;;26.30;;
15516;SDS011;7860;52.030;5.572;2023-05-10T01:45:45;59.15;;;27.05;;
15516;SDS011;7860;52.030;5.572;2023-05-10T01:46:43;57.67;;;26.06;;
15516;SDS011;7860;52.030;5.572;2023-05-10T01:47:46;53.05;;;25.95;;
15516;SDS011;7860;52.030;5.572;2023-05-10T01:48:47;56.55;;;26.13;;
15516;SDS011;7860;52.030;5.572;2023-05-10T01:49:45;56.44;;;26.24;;
15516;SDS011;7860;52.030;5.572;2023-05-10T01:50:45;55.18;;;25.70;;
15516;SDS011;7860;52.030;5.572;2023-05-10T01:51:45;52.82;;;24.65;;
15516;SDS011;7860;52.030;5.572;2023-05-10T01:52:47;53.88;;;25.83;;
15516;SDS011;7860;52.030;5.572;2023-05-10T01:53:45;56.47;;;27.44;;
15516;SDS011;7860;52.030;5.572;2023-05-10T01:54:48;56.42;;;26.16;;
15516;SDS011;7860;52.030;5.572;2023-05-10T01:55:47;59.24;;;26.62;;
15516;SDS011;7860;52.030;5.572;2023-05-10T01:56:46;52.76;;;26.09;;
15516;SDS011;7860;52.030;5.572;2023-05-10T01:57:46;55.56;;;25.86;;
15516;SDS011;7860;52.030;5.572;2023-05-10T01:58:46;53.91;;;25.78;;
15516;SDS011;7860;52.030;5.572;2023-05-10T01:59:46;56.08;;;26.58;;
15516;SDS011;7860;52.030;5.572;2023-05-10T02:00:46;58.73;;;27.57;;
15516;SDS011;7860;52.030;5.572;2023-05-10T02:01:47;56.87;;;27.71;;
15516;SDS011;7860;52.030;5.572;2023-05-10T02:02:47;62.31;;;27.41;;
15516;SDS011;7860;52.030;5.572;2023-05-10T02:03:47;60.40;;;28.12;;
15516;SDS011;7860;52.030;5.572;2023-05-10T02:04:47;61.46;;;27.20;;
15516;SDS011;7860;52.030;5.572;2023-05-10T02:05:47;65.96;;;28.40;;
15516;SDS011;7860;52.030;5.572;2023-05-10T02:06:47;61.44;;;27.52;;
15516;SDS011;7860;52.030;5.572;2023-05-10T02:07:48;62.45;;;28.42;;
15516;SDS011;7860;52.030;5.572;2023-05-10T02:08:48;59.05;;;27.19;;
15516;SDS011;7860;52.030;5.572;2023-05-10T02:09:48;63.45;;;28.45;;
15516;SDS011;7860;52.030;5.572;2023-05-10T02:10:49;62.35;;;28.15;;
15516;SDS011;7860;52.030;5.572;2023-05-10T02:11:49;64.14;;;29.61;;
15516;SDS011;7860;52.030;5.572;2023-05-10T02:12:49;65.84;;;28.71;;
15516;SDS011;7860;52.030;5.572;2023-05-10T02:13:50;63.89;;;28.04;;
15516;SDS011;7860;52.030;5.572;2023-05-10T02:14:50;68.25;;;29.15;;
15516;SDS011;7860;52.030;5.572;2023-05-10T02:15:50;67.31;;;28.99;;
15516;SDS011;7860;52.030;5.572;2023-05-10T02:16:50;66.68;;;28.45;;
15516;SDS011;7860;52.030;5.572;2023-05-10T02:17:50;65.29;;;28.73;;
15516;SDS011;7860;52.030;5.572;2023-05-10T02:18:50;65.21;;;29.79;;
15516;SDS011;7860;52.030;5.572;2023-05-10T02:19:51;68.65;;;28.88;;
15516;SDS011;7860;52.030;5.572;2023-05-10T02:20:52;67.35;;;28.70;;
15516;SDS011;7860;52.030;5.572;2023-05-10T02:21:52;66.46;;;29.16;;
15516;SDS011;7860;52.030;5.572;2023-05-10T02:22:54;69.96;;;29.39;;
15516;SDS011;7860;52.030;5.572;2023-05-10T02:23:52;67.59;;;30.62;;
15516;SDS011;7860;52.030;5.572;2023-05-10T02:24:53;65.33;;;29.30;;
15516;SDS011;7860;52.030;5.572;2023-05-10T02:25:53;64.97;;;29.00;;
15516;SDS011;7860;52.030;5.572;2023-05-10T02:26:53;65.71;;;28.98;;
15516;SDS011;7860;52.030;5.572;2023-05-10T02:27:54;66.57;;;29.90;;
15516;SDS011;7860;52.030;5.572;2023-05-10T02:28:54;64.87;;;30.03;;
15516;SDS011;7860;52.030;5.572;2023-05-10T02:29:54;66.25;;;29.01;;
15516;SDS011;7860;52.030;5.572;2023-05-10T02:30:54;65.14;;;29.77;;
15516;SDS011;7860;52.030;5.572;2023-05-10T02:31:54;65.63;;;29.51;;
15516;SDS011;7860;52.030;5.572;2023-05-10T02:32:54;64.47;;;29.23;;
15516;SDS011;7860;52.030;5.572;2023-05-10T02:33:54;67.94;;;29.81;;
15516;SDS011;7860;52.030;5.572;2023-05-10T02:34:55;68.54;;;29.72;;
15516;SDS011;7860;52.030;5.572;2023-05-10T02:35:55;64.85;;;29.66;;
15516;SDS011;7860;52.030;5.572;2023-05-10T02:36:55;65.55;;;29.35;;
15516;SDS011;7860;52.030;5.572;2023-05-10T02:37:55;66.12;;;29.55;;
15516;SDS011;7860;52.030;5.572;2023-05-10T02:38:55;68.56;;;30.41;;
15516;SDS011;7860;52.030;5.572;2023-05-10T02:39:55;65.73;;;29.82;;
15516;SDS011;7860;52.030;5.572;2023-05-10T02:40:55;64.46;;;30.17;;
15516;SDS011;7860;52.030;5.572;2023-05-10T02:41:56;69.40;;;30.32;;
15516;SDS011;7860;52.030;5.572;2023-05-10T02:42:56;66.15;;;30.49;;
15516;SDS011;7860;52.030;5.572;2023-05-10T02:43:57;71.76;;;31.09;;
15516;SDS011;7860;52.030;5.572;2023-05-10T02:44:59;67.25;;;29.71;;
15516;SDS011;7860;52.030;5.572;2023-05-10T02:45:57;65.83;;;29.76;;
15516;SDS011;7860;52.030;5.572;2023-05-10T02:46:57;64.21;;;29.65;;
15516;SDS011;7860;52.030;5.572;2023-05-10T02:47:58;65.18;;;29.53;;
15516;SDS011;7860;52.030;5.572;2023-05-10T02:48:58;66.37;;;30.88;;
15516;SDS011;7860;52.030;5.572;2023-05-10T02:49:58;63.75;;;30.64;;
15516;SDS011;7860;52.030;5.572;2023-05-10T02:51:00;63.27;;;30.47;;
15516;SDS011;7860;52.030;5.572;2023-05-10T02:52:00;66.89;;;30.48;;
15516;SDS011;7860;52.030;5.572;2023-05-10T02:52:59;62.08;;;29.57;;
15516;SDS011;7860;52.030;5.572;2023-05-10T02:54:00;65.80;;;30.34;;
15516;SDS011;7860;52.030;5.572;2023-05-10T02:55:00;67.70;;;30.32;;
15516;SDS011;7860;52.030;5.572;2023-05-10T02:56:00;63.19;;;30.13;;
15516;SDS011;7860;52.030;5.572;2023-05-10T02:57:00;60.07;;;29.86;;
15516;SDS011;7860;52.030;5.572;2023-05-10T02:58:00;63.20;;;30.86;;
15516;SDS011;7860;52.030;5.572;2023-05-10T02:59:00;60.40;;;28.81;;
15516;SDS011;7860;52.030;5.572;2023-05-10T03:00:00;69.37;;;31.38;;
15516;SDS011;7860;52.030;5.572;2023-05-10T03:01:01;65.70;;;30.76;;
15516;SDS011;7860;52.030;5.572;2023-05-10T03:02:01;64.57;;;30.28;;
15516;SDS011;7860;52.030;5.572;2023-05-10T03:03:01;70.86;;;31.46;;
15516;SDS011;7860;52.030;5.572;2023-05-10T03:04:01;66.18;;;30.69;;
15516;SDS011;7860;52.030;5.572;2023-05-10T03:05:01;63.65;;;30.78;;
15516;SDS011;7860;52.030;5.572;2023-05-10T03:06:01;68.00;;;31.31;;
15516;SDS011;7860;52.030;5.572;2023-05-10T03:07:01;65.45;;;30.93;;
15516;SDS011;7860;52.030;5.572;2023-05-10T03:08:01;66.64;;;31.68;;
15516;SDS011;7860;52.030;5.572;2023-05-10T03:09:01;65.96;;;31.90;;
15516;SDS011;7860;52.030;5.572;2023-05-10T03:10:01;63.95;;;32.24;;
15516;SDS011;7860;52.030;5.572;2023-05-10T03:11:09;68.27;;;32.64;;
15516;SDS011;7860;52.030;5.572;2023-05-10T03:12:03;68.13;;;32.86;;
15516;SDS011;7860;52.030;5.572;2023-05-10T03:13:06;65.99;;;31.99;;
15516;SDS011;7860;52.030;5.572;2023-05-10T03:14:06;65.84;;;31.79;;
15516;SDS011;7860;52.030;5.572;2023-05-10T03:15:03;71.56;;;32.02;;
15516;SDS011;7860;52.030;5.572;2023-05-10T03:16:05;61.53;;;31.19;;
15516;SDS011;7860;52.030;5.572;2023-05-10T03:17:04;63.95;;;30.09;;
15516;SDS011;7860;52.030;5.572;2023-05-10T03:18:04;56.73;;;29.52;;
15516;SDS011;7860;52.030;5.572;2023-05-10T03:19:06;64.43;;;31.21;;
15516;SDS011;7860;52.030;5.572;2023-05-10T03:20:06;63.43;;;30.34;;
15516;SDS011;7860;52.030;5.572;2023-05-10T03:21:04;59.11;;;29.52;;
15516;SDS011;7860;52.030;5.572;2023-05-10T03:22:06;64.06;;;30.05;;
15516;SDS011;7860;52.030;5.572;2023-05-10T03:23:07;59.00;;;29.60;;
15516;SDS011;7860;52.030;5.572;2023-05-10T03:24:05;67.50;;;31.72;;
15516;SDS011;7860;52.030;5.572;2023-05-10T03:25:06;61.79;;;31.46;;
15516;SDS011;7860;52.030;5.572;2023-05-10T03:26:05;61.87;;;31.11;;
15516;SDS011;7860;52.030;5.572;2023-05-10T03:27:06;57.81;;;29.59;;
15516;SDS011;7860;52.030;5.572;2023-05-10T03:28:07;61.28;;;31.79;;
15516;SDS011;7860;52.030;5.572;2023-05-10T03:29:07;63.68;;;32.34;;
15516;SDS011;7860;52.030;5.572;2023-05-10T03:30:07;64.71;;;31.68;;
15516;SDS011;7860;52.030;5.572;2023-05-10T03:31:07;66.73;;;31.72;;
15516;SDS011;7860;52.030;5.572;2023-05-10T03:32:08;65.71;;;31.83;;
15516;SDS011;7860;52.030;5.572;2023-05-10T03:33:08;70.52;;;32.68;;
15516;SDS011;7860;52.030;5.572;2023-05-10T03:34:08;65.50;;;33.01;;
15516;SDS011;7860;52.030;5.572;2023-05-10T03:35:09;70.43;;;33.04;;
15516;SDS011;7860;52.030;5.572;2023-05-10T03:36:09;65.00;;;31.83;;
15516;SDS011;7860;52.030;5.572;2023-05-10T03:37:09;69.44;;;32.44;;
15516;SDS011;7860;52.030;5.572;2023-05-10T03:38:09;68.32;;;33.16;;
15516;SDS011;7860;52.030;5.572;2023-05-10T03:39:09;69.85;;;33.29;;
15516;SDS011;7860;52.030;5.572;2023-05-10T03:40:09;70.66;;;33.37;;
15516;SDS011;7860;52.030;5.572;2023-05-10T03:41:09;76.73;;;33.88;;
15516;SDS011;7860;52.030;5.572;2023-05-10T03:42:10;70.40;;;33.10;;
15516;SDS011;7860;52.030;5.572;2023-05-10T03:43:10;68.85;;;33.07;;
15516;SDS011;7860;52.030;5.572;2023-05-10T03:44:10;68.43;;;33.16;;
15516;SDS011;7860;52.030;5.572;2023-05-10T03:45:11;74.78;;;34.43;;
15516;SDS011;7860;52.030;5.572;2023-05-10T03:46:11;79.27;;;34.82;;
15516;SDS011;7860;52.030;5.572;2023-05-10T03:47:11;77.43;;;33.67;;
15516;SDS011;7860;52.030;5.572;2023-05-10T03:48:11;75.67;;;33.70;;
15516;SDS011;7860;52.030;5.572;2023-05-10T03:49:11;70.92;;;31.99;;
15516;SDS011;7860;52.030;5.572;2023-05-10T03:50:12;76.96;;;33.51;;
15516;SDS011;7860;52.030;5.572;2023-05-10T03:51:12;74.53;;;32.35;;
15516;SDS011;7860;52.030;5.572;2023-05-10T03:52:12;67.41;;;31.11;;
15516;SDS011;7860;52.030;5.572;2023-05-10T03:53:13;70.56;;;32.62;;
15516;SDS011;7860;52.030;5.572;2023-05-10T03:54:13;68.38;;;31.20;;
15516;SDS011;7860;52.030;5.572;2023-05-10T03:55:14;69.83;;;32.27;;
15516;SDS011;7860;52.030;5.572;2023-05-10T03:56:14;69.09;;;31.72;;
15516;SDS011;7860;52.030;5.572;2023-05-10T03:57:15;70.33;;;31.33;;
15516;SDS011;7860;52.030;5.572;2023-05-10T03:58:15;72.19;;;31.48;;
15516;SDS011;7860;52.030;5.572;2023-05-10T03:59:15;70.65;;;31.84;;
15516;SDS011;7860;52.030;5.572;2023-05-10T04:00:15;72.76;;;31.83;;
15516;SDS011;7860;52.030;5.572;2023-05-10T04:01:15;68.44;;;30.86;;
15516;SDS011;7860;52.030;5.572;2023-05-10T04:02:15;69.67;;;30.87;;
15516;SDS011;7860;52.030;5.572;2023-05-10T04:03:15;72.51;;;31.73;;
15516;SDS011;7860;52.030;5.572;2023-05-10T04:04:15;68.07;;;30.36;;
15516;SDS011;7860;52.030;5.572;2023-05-10T04:05:15;69.72;;;31.40;;
15516;SDS011;7860;52.030;5.572;2023-05-10T04:06:16;65.81;;;30.85;;
15516;SDS011;7860;52.030;5.572;2023-05-10T04:07:16;68.83;;;31.50;;
15516;SDS011;7860;52.030;5.572;2023-05-10T04:08:16;71.04;;;31.03;;
15516;SDS011;7860;52.030;5.572;2023-05-10T04:09:16;71.18;;;31.06;;
15516;SDS011;7860;52.030;5.572;2023-05-10T04:10:16;66.33;;;30.46;;
15516;SDS011;7860;52.030;5.572;2023-05-10T04:11:16;71.79;;;31.97;;
15516;SDS011;7860;52.030;5.572;2023-05-10T04:12:16;76.94;;;32.30;;
15516;SDS011;7860;52.030;5.572;2023-05-10T04:13:16;70.50;;;31.50;;
15516;SDS011;7860;52.030;5.572;2023-05-10T04:14:16;76.83;;;32.99;;
15516;SDS011;7860;52.030;5.572;2023-05-10T04:15:16;69.95;;;32.17;;
15516;SDS011;7860;52.030;5.572;2023-05-10T04:16:16;75.24;;;31.80;;
15516;SDS011;7860;52.030;5.572;2023-05-10T04:17:16;70.67;;;31.95;;
15516;SDS011;7860;52.030;5.572;2023-05-10T04:18:16;73.58;;;31.44;;
15516;SDS011;7860;52.030;5.572;2023-05-10T04:19:16;69.32;;;31.91;;
15516;SDS011;7860;52.030;5.572;2023-05-10T04:20:16;67.16;;;32.01;;
15516;SDS011;7860;52.030;5.572;2023-05-10T04:21:16;68.44;;;31.19;;
15516;SDS011;7860;52.030;5.572;2023-05-10T04:22:16;65.00;;;30.67;;
15516;SDS011;7860;52.030;5.572;2023-05-10T04:23:16;69.83;;;31.21;;
15516;SDS011;7860;52.030;5.572;2023-05-10T04:24:17;66.04;;;30.73;;
15516;SDS011;7860;52.030;5.572;2023-05-10T04:25:18;72.84;;;31.82;;
15516;SDS011;7860;52.030;5.572;2023-05-10T04:26:18;66.31;;;30.72;;
15516;SDS011;7860;52.030;5.572;2023-05-10T04:27:18;67.47;;;32.08;;
15516;SDS011;7860;52.030;5.572;2023-05-10T04:28:18;66.22;;;30.57;;
15516;SDS011;7860;52.030;5.572;2023-05-10T04:29:18;65.17;;;29.50;;
15516;SDS011;7860;52.030;5.572;2023-05-10T04:30:19;65.99;;;30.04;;
15516;SDS011;7860;52.030;5.572;2023-05-10T04:31:19;64.53;;;28.79;;
15516;SDS011;7860;52.030;5.572;2023-05-10T04:32:19;59.88;;;27.61;;
15516;SDS011;7860;52.030;5.572;2023-05-10T04:33:19;68.64;;;28.60;;
15516;SDS011;7860;52.030;5.572;2023-05-10T04:34:20;71.33;;;28.86;;
15516;SDS011;7860;52.030;5.572;2023-05-10T04:35:19;61.68;;;26.79;;
15516;SDS011;7860;52.030;5.572;2023-05-10T04:36:19;63.02;;;27.47;;
15516;SDS011;7860;52.030;5.572;2023-05-10T04:37:19;61.41;;;27.24;;
15516;SDS011;7860;52.030;5.572;2023-05-10T04:38:19;61.70;;;26.66;;
15516;SDS011;7860;52.030;5.572;2023-05-10T04:39:19;62.79;;;28.18;;
15516;SDS011;7860;52.030;5.572;2023-05-10T04:40:19;63.36;;;27.15;;
15516;SDS011;7860;52.030;5.572;2023-05-10T04:41:20;65.05;;;27.81;;
15516;SDS011;7860;52.030;5.572;2023-05-10T04:42:20;62.56;;;27.18;;
15516;SDS011;7860;52.030;5.572;2023-05-10T04:43:20;58.28;;;27.07;;
15516;SDS011;7860;52.030;5.572;2023-05-10T04:44:20;57.19;;;26.24;;
15516;SDS011;7860;52.030;5.572;2023-05-10T04:45:20;61.84;;;26.85;;
15516;SDS011;7860;52.030;5.572;2023-05-10T04:46:20;60.32;;;27.04;;
15516;SDS011;7860;52.030;5.572;2023-05-10T04:47:21;59.15;;;26.01;;
15516;SDS011;7860;52.030;5.572;2023-05-10T04:48:21;65.56;;;26.97;;
15516;SDS011;7860;52.030;5.572;2023-05-10T04:49:21;64.96;;;26.43;;
15516;SDS011;7860;52.030;5.572;2023-05-10T04:50:21;63.10;;;26.39;;
15516;SDS011;7860;52.030;5.572;2023-05-10T04:51:21;63.07;;;27.47;;
15516;SDS011;7860;52.030;5.572;2023-05-10T04:52:21;63.22;;;27.41;;
15516;SDS011;7860;52.030;5.572;2023-05-10T04:53:22;65.54;;;27.82;;
15516;SDS011;7860;52.030;5.572;2023-05-10T04:54:21;66.65;;;27.67;;
15516;SDS011;7860;52.030;5.572;2023-05-10T04:55:21;61.80;;;27.03;;
15516;SDS011;7860;52.030;5.572;2023-05-10T04:56:22;64.10;;;26.93;;
15516;SDS011;7860;52.030;5.572;2023-05-10T04:57:22;60.11;;;27.26;;
15516;SDS011;7860;52.030;5.572;2023-05-10T04:58:22;61.86;;;26.44;;
15516;SDS011;7860;52.030;5.572;2023-05-10T04:59:22;62.42;;;27.36;;
15516;SDS011;7860;52.030;5.572;2023-05-10T05:00:22;60.22;;;26.53;;
15516;SDS011;7860;52.030;5.572;2023-05-10T05:01:23;63.05;;;26.48;;
15516;SDS011;7860;52.030;5.572;2023-05-10T05:02:23;64.78;;;26.30;;
15516;SDS011;7860;52.030;5.572;2023-05-10T05:03:23;65.02;;;26.69;;
15516;SDS011;7860;52.030;5.572;2023-05-10T05:04:23;67.57;;;28.39;;
15516;SDS011;7860;52.030;5.572;2023-05-10T05:05:23;68.42;;;27.54;;
15516;SDS011;7860;52.030;5.572;2023-05-10T05:06:23;65.78;;;28.41;;
15516;SDS011;7860;52.030;5.572;2023-05-10T05:07:23;67.37;;;27.98;;
15516;SDS011;7860;52.030;5.572;2023-05-10T05:08:23;74.05;;;29.08;;
15516;SDS011;7860;52.030;5.572;2023-05-10T05:09:23;75.02;;;28.18;;
15516;SDS011;7860;52.030;5.572;2023-05-10T05:10:23;72.30;;;28.52;;
15516;SDS011;7860;52.030;5.572;2023-05-10T05:11:24;71.25;;;29.22;;
15516;SDS011;7860;52.030;5.572;2023-05-10T05:12:24;70.76;;;30.03;;
15516;SDS011;7860;52.030;5.572;2023-05-10T05:13:24;71.38;;;30.17;;
15516;SDS011;7860;52.030;5.572;2023-05-10T05:14:24;67.43;;;29.48;;
15516;SDS011;7860;52.030;5.572;2023-05-10T05:15:24;67.71;;;29.97;;
15516;SDS011;7860;52.030;5.572;2023-05-10T05:16:24;73.16;;;29.82;;
15516;SDS011;7860;52.030;5.572;2023-05-10T05:17:24;74.56;;;30.14;;
15516;SDS011;7860;52.030;5.572;2023-05-10T05:18:24;65.42;;;29.11;;
15516;SDS011;7860;52.030;5.572;2023-05-10T05:19:24;69.93;;;29.69;;
15516;SDS011;7860;52.030;5.572;2023-05-10T05:20:24;67.24;;;29.41;;
15516;SDS011;7860;52.030;5.572;2023-05-10T05:21:24;71.04;;;29.75;;
15516;SDS011;7860;52.030;5.572;2023-05-10T05:22:24;70.31;;;31.01;;
15516;SDS011;7860;52.030;5.572;2023-05-10T05:23:24;70.67;;;30.17;;
15516;SDS011;7860;52.030;5.572;2023-05-10T05:24:24;74.10;;;30.25;;
15516;SDS011;7860;52.030;5.572;2023-05-10T05:25:24;69.60;;;29.93;;
15516;SDS011;7860;52.030;5.572;2023-05-10T05:26:26;74.00;;;30.50;;
15516;SDS011;7860;52.030;5.572;2023-05-10T05:27:26;62.48;;;28.32;;
15516;SDS011;7860;52.030;5.572;2023-05-10T05:28:26;70.04;;;30.00;;
15516;SDS011;7860;52.030;5.572;2023-05-10T05:29:26;67.21;;;29.34;;
15516;SDS011;7860;52.030;5.572;2023-05-10T05:30:26;64.67;;;29.40;;
15516;SDS011;7860;52.030;5.572;2023-05-10T05:31:26;65.42;;;29.33;;
15516;SDS011;7860;52.030;5.572;2023-05-10T05:32:26;62.16;;;29.17;;
15516;SDS011;7860;52.030;5.572;2023-05-10T05:33:26;67.70;;;30.35;;
15516;SDS011;7860;52.030;5.572;2023-05-10T05:34:26;68.08;;;30.45;;
15516;SDS011;7860;52.030;5.572;2023-05-10T05:35:26;67.16;;;28.43;;
15516;SDS011;7860;52.030;5.572;2023-05-10T05:36:27;64.90;;;28.03;;
15516;SDS011;7860;52.030;5.572;2023-05-10T05:37:27;66.62;;;29.37;;
15516;SDS011;7860;52.030;5.572;2023-05-10T05:38:27;68.24;;;29.75;;
15516;SDS011;7860;52.030;5.572;2023-05-10T05:39:27;72.29;;;30.45;;
15516;SDS011;7860;52.030;5.572;2023-05-10T05:40:27;64.07;;;29.38;;
15516;SDS011;7860;52.030;5.572;2023-05-10T05:41:27;62.71;;;29.41;;
15516;SDS011;7860;52.030;5.572;2023-05-10T05:42:27;62.97;;;29.11;;
15516;SDS011;7860;52.030;5.572;2023-05-10T05:43:27;62.87;;;29.27;;
15516;SDS011;7860;52.030;5.572;2023-05-10T05:44:27;63.32;;;29.58;;
15516;SDS011;7860;52.030;5.572;2023-05-10T05:45:27;64.65;;;29.76;;
15516;SDS011;7860;52.030;5.572;2023-05-10T05:46:27;63.94;;;29.53;;
15516;SDS011;7860;52.030;5.572;2023-05-10T05:47:27;70.59;;;30.25;;
15516;SDS011;7860;52.030;5.572;2023-05-10T05:48:29;68.60;;;29.94;;
15516;SDS011;7860;52.030;5.572;2023-05-10T05:49:27;62.48;;;29.93;;
15516;SDS011;7860;52.030;5.572;2023-05-10T05:50:27;63.51;;;29.13;;
15516;SDS011;7860;52.030;5.572;2023-05-10T05:51:27;68.83;;;30.38;;
15516;SDS011;7860;52.030;5.572;2023-05-10T05:52:27;67.10;;;30.15;;
15516;SDS011;7860;52.030;5.572;2023-05-10T05:53:27;64.25;;;29.80;;
15516;SDS011;7860;52.030;5.572;2023-05-10T05:54:27;64.96;;;29.87;;
15516;SDS011;7860;52.030;5.572;2023-05-10T05:55:27;64.61;;;30.24;;
15516;SDS011;7860;52.030;5.572;2023-05-10T05:56:27;68.84;;;30.34;;
15516;SDS011;7860;52.030;5.572;2023-05-10T05:57:27;68.92;;;30.85;;